createdAt,value
2018-12-13T00:00:13.350Z,91.14
2018-12-13T00:01:11.884Z,91.56
2018-12-13T00:02:10.418Z,91.66
2018-12-13T00:03:08.957Z,91.47
2018-12-13T00:04:07.543Z,91.38
2018-12-13T00:05:06.120Z,91.28
2018-12-13T00:06:05.083Z,90.9
2018-12-13T00:07:03.650Z,90.81
2018-12-13T00:08:02.333Z,91.09
2018-12-13T00:09:01.035Z,90.62
2018-12-13T00:09:59.639Z,91
2018-12-13T00:10:58.433Z,91.09
2018-12-13T00:11:57.122Z,90.81
2018-12-13T00:12:55.672Z,91.09
2018-12-13T00:13:54.390Z,91.19
2018-12-13T00:14:53.127Z,90.9
2018-12-13T00:15:51.638Z,90.9
2018-12-13T00:16:50.198Z,91.09
2018-12-13T00:17:48.746Z,91.09
2018-12-13T00:18:47.279Z,90.81
2018-12-13T00:19:45.840Z,90.9
2018-12-13T00:20:44.673Z,91.09
2018-12-13T00:21:43.411Z,90.86
2018-12-13T00:22:41.942Z,91.28
2018-12-13T00:23:40.696Z,90.81
2018-12-13T00:24:39.422Z,91
2018-12-13T00:25:37.983Z,90.95
2018-12-13T00:26:36.750Z,91.09
2018-12-13T00:27:35.289Z,90.33
2018-12-13T00:28:33.844Z,90.52
2018-12-13T00:29:32.688Z,90.9
2018-12-13T00:30:31.504Z,90.62
2018-12-13T00:31:30.039Z,90.81
2018-12-13T00:32:28.817Z,90.43
2018-12-13T00:33:27.366Z,90.43
2018-12-13T00:34:25.910Z,91.09
2018-12-13T00:35:24.718Z,90.33
2018-12-13T00:36:23.491Z,90.43
2018-12-13T00:37:21.992Z,90.24
2018-12-13T00:38:20.511Z,90.52
2018-12-13T00:39:19.040Z,90.14
2018-12-13T00:40:17.592Z,90.67
2018-12-13T00:41:16.187Z,90.67
2018-12-13T00:42:15.007Z,90.86
2018-12-13T00:43:13.535Z,90.86
2018-12-13T00:44:12.086Z,90.9
2018-12-13T00:45:10.869Z,90.71
2018-12-13T00:46:09.416Z,90.14
2018-12-13T00:47:07.992Z,90.24
2018-12-13T00:48:06.603Z,90.05
2018-12-13T00:49:05.170Z,89.95
2018-12-13T00:50:03.704Z,90.14
2018-12-13T00:51:02.234Z,89.67
2018-12-13T00:52:00.784Z,89.58
2018-12-13T00:52:59.296Z,89.58
2018-12-13T00:53:57.832Z,89.39
2018-12-13T00:54:56.755Z,89.1
2018-12-13T00:55:55.341Z,89.15
2018-12-13T00:56:53.892Z,90.1
2018-12-13T00:57:52.575Z,89.91
2018-12-13T00:59:55.385Z,90.19
2018-12-13T01:00:53.935Z,90.19
2018-12-13T01:01:52.696Z,90.57
2018-12-13T01:02:51.249Z,90.48
2018-12-13T01:03:49.802Z,90.48
2018-12-13T01:04:48.330Z,90.86
2018-12-13T01:05:47.064Z,91.14
2018-12-13T01:06:46.025Z,91.24
2018-12-13T01:07:44.269Z,90.95
2018-12-13T01:08:43.163Z,90.95
2018-12-13T01:09:41.724Z,91.14
2018-12-13T01:10:40.291Z,91.42
2018-12-13T01:11:38.821Z,91.05
2018-12-13T01:12:37.405Z,91.14
2018-12-13T01:13:35.961Z,91.42
2018-12-13T01:14:34.528Z,91.14
2018-12-13T01:15:33.167Z,91.24
2018-12-13T01:16:31.996Z,91.42
2018-12-13T01:17:30.771Z,91.19
2018-12-13T01:18:29.435Z,91.24
2018-12-13T01:19:27.980Z,91.42
2018-12-13T01:20:26.511Z,91.33
2018-12-13T01:21:25.066Z,91.52
2018-12-13T01:22:23.617Z,91.19
2018-12-13T01:23:22.148Z,91.14
2018-12-13T01:24:20.967Z,91.71
2018-12-13T01:25:19.535Z,91.24
2018-12-13T01:26:18.103Z,91.14
2018-12-13T01:27:16.922Z,90.95
2018-12-13T01:28:15.481Z,90.48
2018-12-13T01:29:14.015Z,90.67
2018-12-13T01:30:12.735Z,90.95
2018-12-13T01:31:11.298Z,90.86
2018-12-13T01:32:09.830Z,91.14
2018-12-13T01:33:08.665Z,90.76
2018-12-13T01:34:07.318Z,90.86
2018-12-13T01:35:05.864Z,90.81
2018-12-13T01:36:04.680Z,91.28
2018-12-13T01:37:03.347Z,91.47
2018-12-13T01:38:01.906Z,91.76
2018-12-13T01:39:00.724Z,91.66
2018-12-13T01:39:59.276Z,91.8
2018-12-13T01:40:57.838Z,90.95
2018-12-13T01:41:56.657Z,90.76
2018-12-13T01:42:55.314Z,91.05
2018-12-13T01:43:53.874Z,91
2018-12-13T01:44:52.408Z,91.38
2018-12-13T01:45:51.006Z,91.66
2018-12-13T01:46:49.551Z,91.95
2018-12-13T01:47:48.094Z,92.23
2018-12-13T01:48:46.954Z,91.66
2018-12-13T01:49:45.505Z,91.61
2018-12-13T01:50:44.165Z,91.09
2018-12-13T01:51:42.812Z,91.28
2018-12-13T01:52:41.463Z,91.47
2018-12-13T01:53:39.980Z,91.24
2018-12-13T01:54:38.607Z,90.76
2018-12-13T01:55:37.147Z,90.29
2018-12-13T01:56:35.862Z,90.57
2018-12-13T01:57:34.641Z,90.19
2018-12-13T01:58:33.337Z,90.19
2018-12-13T01:59:31.879Z,90
2018-12-13T02:00:30.662Z,90
2018-12-13T02:01:29.235Z,90
2018-12-13T02:02:27.795Z,89.91
2018-12-13T02:03:26.617Z,89.96
2018-12-13T02:04:25.337Z,90.24
2018-12-13T02:05:23.872Z,89.96
2018-12-13T02:06:22.585Z,90.81
2018-12-13T02:07:21.179Z,90.1
2018-12-13T02:08:19.709Z,89.81
2018-12-13T02:09:18.227Z,90
2018-12-13T02:10:16.762Z,89.81
2018-12-13T02:11:15.342Z,89.72
2018-12-13T02:12:13.901Z,90.15
2018-12-13T02:13:12.425Z,90.1
2018-12-13T02:14:11.000Z,89.77
2018-12-13T02:15:09.560Z,89.39
2018-12-13T02:16:08.081Z,90.15
2018-12-13T02:17:06.935Z,90.15
2018-12-13T02:18:05.467Z,89.96
2018-12-13T02:19:04.046Z,89.96
2018-12-13T02:20:02.832Z,89.96
2018-12-13T02:21:01.494Z,89.96
2018-12-13T02:22:00.051Z,89.96
2018-12-13T02:22:58.599Z,89.86
2018-12-13T02:23:57.183Z,90
2018-12-13T02:24:55.724Z,89.86
2018-12-13T02:25:54.538Z,89.62
2018-12-13T02:26:53.246Z,89.34
2018-12-13T02:27:51.864Z,89.25
2018-12-13T02:28:50.534Z,89.01
2018-12-13T02:29:49.120Z,89.39
2018-12-13T02:30:47.647Z,89.86
2018-12-13T02:31:46.204Z,89.48
2018-12-13T02:32:44.832Z,90.05
2018-12-13T02:33:43.391Z,89.58
2018-12-13T02:34:41.912Z,89.96
2018-12-13T02:35:40.683Z,89.96
2018-12-13T02:36:39.358Z,90.05
2018-12-13T02:37:37.899Z,89.96
2018-12-13T02:38:36.602Z,89.39
2018-12-13T02:39:35.230Z,89.67
2018-12-13T02:40:33.782Z,89.48
2018-12-13T02:41:32.311Z,89.48
2018-12-13T02:42:30.847Z,89.48
2018-12-13T02:43:29.396Z,89.67
2018-12-13T02:44:27.934Z,89.34
2018-12-13T02:45:26.871Z,88.92
2018-12-13T02:46:25.411Z,88.92
2018-12-13T02:47:23.963Z,88.06
2018-12-13T02:48:22.704Z,88.54
2018-12-13T02:49:21.373Z,88.73
2018-12-13T02:50:19.944Z,89.01
2018-12-13T02:51:18.465Z,88.82
2018-12-13T02:52:16.995Z,89.11
2018-12-13T02:53:15.565Z,89.11
2018-12-13T02:54:14.118Z,89.01
2018-12-13T02:55:12.866Z,89.67
2018-12-13T02:56:11.436Z,89.11
2018-12-13T02:57:09.980Z,89.11
2018-12-13T02:58:08.873Z,89.39
2018-12-13T02:59:07.434Z,89.86
2018-12-13T03:00:05.995Z,90.05
2018-12-13T03:01:04.639Z,89.77
2018-12-13T03:02:03.171Z,90.34
2018-12-13T03:03:01.694Z,90.81
2018-12-13T03:04:00.249Z,89.96
2018-12-13T03:04:58.762Z,90.34
2018-12-13T03:05:57.326Z,91.09
2018-12-13T03:06:55.860Z,90.72
2018-12-13T03:07:54.493Z,90.62
2018-12-13T03:08:53.152Z,89.96
2018-12-13T03:09:51.672Z,90.53
2018-12-13T03:10:50.330Z,90.62
2018-12-13T03:11:49.091Z,90.39
2018-12-13T03:12:47.661Z,90.95
2018-12-13T03:13:46.193Z,91.09
2018-12-13T03:14:44.901Z,90.95
2018-12-13T03:15:43.447Z,90.95
2018-12-13T03:16:41.999Z,90.95
2018-12-13T03:17:40.600Z,90.95
2018-12-13T03:18:39.348Z,91.52
2018-12-13T03:19:37.938Z,91.81
2018-12-13T03:20:36.754Z,91.62
2018-12-13T03:21:35.505Z,91.33
2018-12-13T03:22:34.091Z,91.09
2018-12-13T03:23:32.760Z,90.72
2018-12-13T03:24:31.284Z,90.72
2018-12-13T03:25:29.848Z,90.91
2018-12-13T03:26:29.217Z,90.72
2018-12-13T03:27:29.015Z,90.86
2018-12-13T03:28:27.557Z,91.38
2018-12-13T03:29:26.077Z,91.33
2018-12-13T03:30:24.863Z,91.09
2018-12-13T03:31:23.440Z,91.09
2018-12-13T03:32:21.982Z,91.09
2018-12-13T03:33:20.567Z,90.81
2018-12-13T03:34:19.119Z,90.81
2018-12-13T03:35:17.665Z,90.72
2018-12-13T03:36:16.198Z,90.62
2018-12-13T03:37:20.478Z,90.72
2018-12-13T03:38:13.344Z,91
2018-12-13T03:39:11.924Z,90.72
2018-12-13T03:40:10.751Z,90.34
2018-12-13T03:41:09.429Z,89.96
2018-12-13T03:42:07.958Z,89.86
2018-12-13T03:43:06.711Z,89.58
2018-12-13T03:44:05.278Z,89.58
2018-12-13T03:45:03.853Z,89.86
2018-12-13T03:46:02.417Z,89.86
2018-12-13T03:47:01.028Z,90.15
2018-12-13T03:47:59.626Z,90.05
2018-12-13T03:48:58.398Z,90.05
2018-12-13T03:49:57.201Z,89.86
2018-12-13T03:50:55.818Z,90.05
2018-12-13T03:51:54.361Z,90.05
2018-12-13T03:52:52.985Z,89.48
2018-12-13T03:53:51.517Z,89.48
2018-12-13T03:54:50.488Z,90.34
2018-12-13T03:55:49.149Z,89.86
2018-12-13T03:56:47.726Z,89.96
2018-12-13T03:57:46.270Z,89.58
2018-12-13T03:58:44.986Z,89.48
2018-12-13T03:59:43.517Z,89.48
2018-12-13T04:00:42.058Z,89.86
2018-12-13T04:01:40.620Z,89.86
2018-12-13T04:02:39.156Z,89.67
2018-12-13T04:03:37.672Z,89.86
2018-12-13T04:04:36.212Z,89.96
2018-12-13T04:05:34.854Z,89.39
2018-12-13T04:06:33.368Z,90.15
2018-12-13T04:07:31.906Z,90.91
2018-12-13T04:08:30.745Z,91.14
2018-12-13T04:09:30.198Z,90.81
2018-12-13T04:10:29.005Z,90.34
2018-12-13T04:11:27.543Z,90.86
2018-12-13T04:12:26.073Z,91.05
2018-12-13T04:13:24.802Z,91.19
2018-12-13T04:14:23.321Z,90.95
2018-12-13T04:15:21.857Z,91.43
2018-12-13T04:16:20.560Z,92
2018-12-13T04:17:19.617Z,92
2018-12-13T04:18:18.149Z,92.28
2018-12-13T04:19:16.863Z,92
2018-12-13T04:20:15.421Z,92.19
2018-12-13T04:21:13.933Z,92.76
2018-12-13T04:22:12.524Z,92.57
2018-12-13T04:23:11.270Z,92.76
2018-12-13T04:24:09.827Z,92.28
2018-12-13T04:25:08.713Z,92.57
2018-12-13T04:26:07.372Z,92.09
2018-12-13T04:27:05.899Z,92.09
2018-12-13T04:28:04.473Z,92.09
2018-12-13T04:29:03.036Z,92.09
2018-12-13T04:30:01.584Z,92
2018-12-13T04:31:00.163Z,92.09
2018-12-13T04:31:59.020Z,92.19
2018-12-13T04:32:57.551Z,92.66
2018-12-13T04:33:56.098Z,92.47
2018-12-13T04:34:54.883Z,92.57
2018-12-13T04:35:53.447Z,93.04
2018-12-13T04:36:51.986Z,92.47
2018-12-13T04:37:50.536Z,92.19
2018-12-13T04:40:30.651Z,92.38
2018-12-13T04:41:29.188Z,92.57
2018-12-13T04:42:27.719Z,92
2018-12-13T04:43:26.551Z,92.94
2018-12-13T04:44:25.449Z,92.57
2018-12-13T04:45:24.011Z,92.38
2018-12-13T04:46:22.655Z,92.57
2018-12-13T04:47:21.209Z,92.76
2018-12-13T04:48:19.769Z,93.32
2018-12-13T04:49:18.316Z,93.8
2018-12-13T04:50:17.105Z,94.56
2018-12-13T04:51:15.665Z,94.27
2018-12-13T04:52:14.252Z,94.08
2018-12-13T04:53:13.176Z,93.23
2018-12-13T04:54:11.721Z,93.23
2018-12-13T04:55:10.253Z,93.51
2018-12-13T04:56:08.822Z,93.8
2018-12-13T04:57:07.417Z,93.8
2018-12-13T04:58:05.961Z,94.08
2018-12-13T04:59:04.827Z,93.8
2018-12-13T05:00:03.346Z,94.08
2018-12-13T05:01:01.888Z,93.7
2018-12-13T05:02:00.713Z,94.08
2018-12-13T05:02:59.378Z,93.7
2018-12-13T05:03:57.857Z,94.18
2018-12-13T05:04:56.398Z,94.46
2018-12-13T05:05:54.998Z,94.56
2018-12-13T05:06:53.552Z,94.56
2018-12-13T05:07:52.194Z,95.03
2018-12-13T05:08:51.009Z,94.37
2018-12-13T05:09:50.335Z,94.18
2018-12-13T05:10:48.340Z,93.8
2018-12-13T05:11:47.047Z,93.32
2018-12-13T05:12:45.578Z,93.32
2018-12-13T05:13:44.121Z,93.51
2018-12-13T05:14:42.655Z,93.89
2018-12-13T05:15:41.200Z,93.8
2018-12-13T05:16:39.759Z,93.99
2018-12-13T05:17:38.428Z,94.18
2018-12-13T05:18:37.050Z,94.08
2018-12-13T05:19:35.658Z,94.18
2018-12-13T05:20:34.182Z,94.74
2018-12-13T05:21:33.054Z,95.5
2018-12-13T05:22:31.581Z,95.22
2018-12-13T05:23:30.130Z,95.64
2018-12-13T05:24:28.795Z,95.64
2018-12-13T05:25:27.379Z,95.98
2018-12-13T05:26:25.905Z,95.31
2018-12-13T05:27:24.498Z,95.64
2018-12-13T05:28:23.159Z,96.21
2018-12-13T05:29:21.677Z,96.59
2018-12-13T05:30:20.339Z,96.59
2018-12-13T05:31:19.212Z,96.12
2018-12-13T05:32:17.755Z,95.64
2018-12-13T05:33:16.266Z,95.45
2018-12-13T05:34:14.971Z,96.02
2018-12-13T05:35:13.499Z,96.12
2018-12-13T05:36:12.036Z,96.31
2018-12-13T05:37:10.567Z,96.02
2018-12-13T05:38:09.167Z,96.12
2018-12-13T05:39:07.706Z,96.02
2018-12-13T05:40:06.418Z,96.69
2018-12-13T05:41:05.097Z,96.69
2018-12-13T05:42:03.655Z,96.4
2018-12-13T05:43:02.331Z,96.5
2018-12-13T05:44:01.013Z,96.59
2018-12-13T05:44:59.553Z,96.21
2018-12-13T05:45:58.096Z,96.21
2018-12-13T05:46:56.606Z,96.31
2018-12-13T05:47:55.142Z,96.4
2018-12-13T05:48:54.582Z,96.5
2018-12-13T05:49:52.240Z,96.12
2018-12-13T05:50:50.767Z,95.36
2018-12-13T05:51:49.281Z,96.4
2018-12-13T05:52:47.840Z,96.31
2018-12-13T05:53:46.733Z,95.74
2018-12-13T05:54:45.302Z,96.31
2018-12-13T05:55:43.999Z,96.12
2018-12-13T05:56:42.767Z,96.02
2018-12-13T05:57:41.373Z,96.02
2018-12-13T05:58:39.887Z,96.59
2018-12-13T05:59:38.428Z,96.02
2018-12-13T06:00:37.087Z,96.12
2018-12-13T06:01:35.609Z,96.21
2018-12-13T06:02:34.423Z,96.12
2018-12-13T06:03:33.121Z,96.12
2018-12-13T06:04:31.667Z,95.64
2018-12-13T06:05:30.202Z,95.6
2018-12-13T06:06:28.894Z,95.55
2018-12-13T06:07:27.466Z,95.55
2018-12-13T06:08:25.982Z,95.55
2018-12-13T06:09:24.644Z,95.69
2018-12-13T06:10:23.203Z,95.5
2018-12-13T06:11:21.746Z,94.84
2018-12-13T06:12:20.538Z,94.98
2018-12-13T06:13:19.335Z,94.79
2018-12-13T06:14:17.876Z,95.22
2018-12-13T06:15:16.455Z,95.41
2018-12-13T06:16:15.194Z,95.07
2018-12-13T06:17:13.739Z,95.45
2018-12-13T06:18:12.557Z,95.45
2018-12-13T06:19:11.191Z,95.55
2018-12-13T06:20:09.752Z,95.64
2018-12-13T06:21:11.796Z,95.64
2018-12-13T06:22:07.248Z,95.93
2018-12-13T06:23:05.855Z,95.74
2018-12-13T06:24:04.766Z,95.55
2018-12-13T06:25:03.377Z,95.74
2018-12-13T06:26:01.910Z,96.02
2018-12-13T06:27:00.593Z,96.02
2018-12-13T06:27:59.227Z,96.02
2018-12-13T06:28:57.764Z,96.69
2018-12-13T06:29:58.982Z,96.21
2018-12-13T06:30:54.862Z,96.02
2018-12-13T06:31:53.400Z,95.69
2018-12-13T06:32:52.007Z,95.83
2018-12-13T06:33:50.881Z,95.64
2018-12-13T06:34:49.428Z,96.02
2018-12-13T06:35:47.968Z,96.31
2018-12-13T06:36:46.758Z,95.64
2018-12-13T06:37:45.383Z,95.26
2018-12-13T06:38:43.934Z,95.17
2018-12-13T06:39:42.453Z,94.98
2018-12-13T06:40:41.005Z,94.65
2018-12-13T06:41:39.675Z,95.03
2018-12-13T06:42:38.462Z,94.56
2018-12-13T06:43:37.200Z,94.74
2018-12-13T06:44:35.783Z,93.99
2018-12-13T06:45:34.410Z,93.99
2018-12-13T06:46:33.083Z,94.42
2018-12-13T06:47:31.617Z,94.23
2018-12-13T06:48:30.215Z,94.37
2018-12-13T06:49:28.785Z,94.84
2018-12-13T06:50:27.327Z,94.18
2018-12-13T06:51:25.978Z,94.27
2018-12-13T06:52:24.658Z,93.89
2018-12-13T06:53:23.242Z,94.27
2018-12-13T06:54:21.864Z,94.08
2018-12-13T06:55:20.598Z,94.56
2018-12-13T06:56:19.290Z,94.37
2018-12-13T06:57:17.820Z,93.99
2018-12-13T06:58:16.348Z,94.18
2018-12-13T06:59:14.898Z,94.18
2018-12-13T07:00:13.501Z,94.08
2018-12-13T07:01:12.050Z,93.89
2018-12-13T07:02:10.841Z,93.8
2018-12-13T07:03:09.386Z,93.32
2018-12-13T07:04:07.897Z,93.13
2018-12-13T07:05:06.676Z,93.32
2018-12-13T07:06:05.323Z,92.28
2018-12-13T07:07:03.894Z,92.76
2018-12-13T07:08:07.735Z,92.57
2018-12-13T07:09:00.970Z,92.47
2018-12-13T07:09:59.497Z,92.28
2018-12-13T07:10:58.031Z,92.28
2018-12-13T07:11:56.561Z,92.28
2018-12-13T07:12:55.135Z,92.19
2018-12-13T07:13:53.685Z,92.38
2018-12-13T07:14:52.510Z,92.09
2018-12-13T07:15:51.247Z,92.47
2018-12-13T07:16:49.759Z,92.19
2018-12-13T07:17:48.341Z,92.66
2018-12-13T07:18:47.025Z,92.09
2018-12-13T07:19:45.589Z,91.43
2018-12-13T07:20:44.122Z,91.9
2018-12-13T07:21:43.029Z,91.9
2018-12-13T07:22:41.588Z,91.81
2018-12-13T07:23:40.173Z,91.71
2018-12-13T07:24:39.046Z,91.62
2018-12-13T07:25:37.643Z,91.62
2018-12-13T07:26:36.101Z,91.71
2018-12-13T07:27:34.776Z,92.09
2018-12-13T07:28:33.326Z,92.09
2018-12-13T07:29:31.884Z,93.04
2018-12-13T07:30:30.454Z,92.57
2018-12-13T07:31:29.137Z,92.61
2018-12-13T07:32:27.671Z,93.04
2018-12-13T07:33:26.327Z,93.23
2018-12-13T07:34:25.227Z,93.08
2018-12-13T07:35:23.756Z,93.46
2018-12-13T07:36:22.299Z,93.51
2018-12-13T07:37:20.933Z,92.9
2018-12-13T07:38:19.620Z,93.23
2018-12-13T07:39:18.189Z,92.57
2018-12-13T07:40:16.981Z,92.38
2018-12-13T07:41:15.514Z,92
2018-12-13T07:42:14.064Z,92.47
2018-12-13T07:43:12.931Z,92
2018-12-13T07:44:11.527Z,92.38
2018-12-13T07:45:10.071Z,92.47
2018-12-13T07:46:09.028Z,92.47
2018-12-13T07:47:07.573Z,92
2018-12-13T07:48:06.159Z,92.09
2018-12-13T07:49:04.917Z,92.19
2018-12-13T07:50:03.476Z,91.71
2018-12-13T07:51:02.606Z,91.9
2018-12-13T07:52:00.629Z,91.81
2018-12-13T07:52:59.182Z,91.52
2018-12-13T07:53:57.742Z,91.52
2018-12-13T07:54:56.275Z,91.86
2018-12-13T07:55:54.948Z,92
2018-12-13T07:56:53.641Z,91.95
2018-12-13T07:57:52.209Z,91.81
2018-12-13T07:58:51.035Z,92
2018-12-13T07:59:49.597Z,91.81
2018-12-13T08:00:48.199Z,92.19
2018-12-13T08:01:46.811Z,91.52
2018-12-13T08:02:45.353Z,91.71
2018-12-13T08:03:43.891Z,91.62
2018-12-13T08:04:42.411Z,91.71
2018-12-13T08:05:41.172Z,91.52
2018-12-13T08:06:39.739Z,92
2018-12-13T08:07:38.379Z,91.24
2018-12-13T08:08:37.292Z,91.33
2018-12-13T08:09:35.836Z,91.33
2018-12-13T08:10:34.422Z,90.86
2018-12-13T08:11:33.039Z,91.05
2018-12-13T08:12:31.569Z,91.05
2018-12-13T08:13:30.129Z,91.43
2018-12-13T08:14:28.952Z,91.43
2018-12-13T08:15:27.491Z,91.43
2018-12-13T08:16:26.042Z,91.24
2018-12-13T08:17:24.830Z,90.86
2018-12-13T08:18:23.526Z,90.95
2018-12-13T08:21:03.571Z,90.95
2018-12-13T08:22:02.081Z,91.05
2018-12-13T08:23:00.979Z,90.86
2018-12-13T08:23:59.527Z,90.86
2018-12-13T08:24:58.055Z,90.95
2018-12-13T08:25:56.846Z,90.29
2018-12-13T08:26:55.416Z,90.95
2018-12-13T08:27:53.953Z,91.19
2018-12-13T08:28:52.518Z,91.38
2018-12-13T08:29:51.134Z,92.19
2018-12-13T08:30:49.698Z,91.38
2018-12-13T08:31:48.222Z,91.62
2018-12-13T08:32:46.779Z,91.67
2018-12-13T08:33:45.322Z,91.48
2018-12-13T08:34:43.890Z,91.52
2018-12-13T08:35:42.843Z,90.48
2018-12-13T08:36:41.431Z,91.05
2018-12-13T08:37:39.979Z,90.95
2018-12-13T08:40:03.051Z,91.38
2018-12-13T08:41:01.579Z,90.86
2018-12-13T08:42:00.132Z,91.33
2018-12-13T08:42:59.014Z,90.86
2018-12-13T08:43:57.633Z,90.86
2018-12-13T08:44:56.164Z,90.58
2018-12-13T08:45:54.764Z,90.95
2018-12-13T08:46:53.252Z,90.86
2018-12-13T08:47:51.806Z,90.58
2018-12-13T08:48:50.368Z,90.1
2018-12-13T08:49:48.885Z,90.1
2018-12-13T08:50:47.441Z,89.91
2018-12-13T08:51:45.981Z,90.1
2018-12-13T08:52:44.817Z,89.53
2018-12-13T08:53:43.360Z,89.72
2018-12-13T08:54:41.870Z,88.87
2018-12-13T08:55:40.665Z,88.96
2018-12-13T08:56:39.412Z,89.25
2018-12-13T08:57:37.954Z,89.15
2018-12-13T08:58:36.509Z,89.44
2018-12-13T08:59:35.083Z,89.34
2018-12-13T09:00:33.603Z,89.15
2018-12-13T09:01:32.153Z,88.96
2018-12-13T09:02:31.019Z,89.25
2018-12-13T09:03:29.606Z,89.15
2018-12-13T09:04:28.329Z,89.72
2018-12-13T09:05:26.975Z,89.44
2018-12-13T09:06:25.548Z,89.34
2018-12-13T09:07:24.092Z,89.34
2018-12-13T09:08:22.661Z,89.53
2018-12-13T09:09:21.230Z,89.82
2018-12-13T09:10:19.741Z,89.91
2018-12-13T09:11:18.259Z,90.01
2018-12-13T09:12:16.817Z,89.72
2018-12-13T09:13:15.359Z,89.34
2018-12-13T09:14:13.940Z,89.91
2018-12-13T09:15:12.755Z,89.44
2018-12-13T09:16:11.416Z,89.34
2018-12-13T09:17:09.950Z,88.78
2018-12-13T09:18:08.577Z,89.53
2018-12-13T09:19:07.251Z,89.53
2018-12-13T09:20:05.783Z,89.96
2018-12-13T09:21:04.336Z,89.91
2018-12-13T09:22:02.879Z,90.2
2018-12-13T09:23:01.441Z,90.2
2018-12-13T09:23:59.987Z,89.15
2018-12-13T09:24:58.631Z,90.1
2018-12-13T09:25:57.298Z,88.87
2018-12-13T09:26:55.865Z,88.59
2018-12-13T09:27:54.740Z,88.96
2018-12-13T09:28:53.442Z,88.78
2018-12-13T09:29:51.976Z,88.49
2018-12-13T09:30:50.526Z,88.3
2018-12-13T09:31:49.081Z,88.21
2018-12-13T09:32:47.619Z,88.21
2018-12-13T09:33:46.173Z,88.49
2018-12-13T09:34:45.067Z,88.4
2018-12-13T09:35:43.598Z,87.92
2018-12-13T09:36:42.130Z,87.83
2018-12-13T09:37:47.234Z,87.16
2018-12-13T09:38:39.882Z,87.16
2018-12-13T09:39:37.981Z,87.16
2018-12-13T09:40:36.559Z,87.45
2018-12-13T09:41:35.361Z,88.4
2018-12-13T09:42:33.971Z,88.68
2018-12-13T09:43:32.680Z,87.92
2018-12-13T09:44:31.360Z,87.45
2018-12-13T09:45:29.984Z,87.26
2018-12-13T09:46:28.685Z,87.49
2018-12-13T09:47:27.353Z,86.55
2018-12-13T09:48:25.889Z,86.5
2018-12-13T09:49:24.750Z,86.45
2018-12-13T09:50:23.450Z,86.45
2018-12-13T09:51:21.990Z,86.45
2018-12-13T09:52:20.646Z,86.16
2018-12-13T09:53:19.325Z,85.88
2018-12-13T09:54:17.829Z,86.31
2018-12-13T09:55:16.372Z,86.6
2018-12-13T09:56:14.956Z,86.26
2018-12-13T09:57:13.523Z,85.97
2018-12-13T09:58:12.127Z,85.97
2018-12-13T09:59:10.919Z,86.03
2018-12-13T10:00:09.511Z,86.5
2018-12-13T10:01:08.012Z,86.74
2018-12-13T10:02:06.817Z,85.69
2018-12-13T10:03:05.534Z,85.78
2018-12-13T10:04:04.071Z,85.5
2018-12-13T10:05:02.619Z,85.6
2018-12-13T10:06:01.151Z,85.69
2018-12-13T10:06:59.731Z,85.41
2018-12-13T10:07:58.603Z,85.5
2018-12-13T10:08:57.276Z,85.13
2018-12-13T10:09:55.955Z,85.69
2018-12-13T10:10:54.560Z,85.6
2018-12-13T10:11:53.190Z,85.6
2018-12-13T10:12:51.731Z,85.5
2018-12-13T10:13:50.402Z,85.31
2018-12-13T10:14:49.090Z,85.13
2018-12-13T10:15:47.663Z,85.13
2018-12-13T10:16:46.243Z,84.74
2018-12-13T10:17:44.993Z,84.46
2018-12-13T10:18:43.544Z,84.84
2018-12-13T10:19:42.105Z,84.94
2018-12-13T10:20:40.711Z,84.74
2018-12-13T10:21:39.294Z,85.03
2018-12-13T10:22:37.817Z,84.65
2018-12-13T10:23:36.356Z,84.84
2018-12-13T10:24:34.875Z,84.84
2018-12-13T10:25:33.438Z,84.46
2018-12-13T10:26:31.991Z,84.17
2018-12-13T10:27:30.874Z,83.89
2018-12-13T10:28:29.382Z,83.98
2018-12-13T10:29:27.957Z,82.94
2018-12-13T10:30:26.696Z,82.85
2018-12-13T10:31:25.267Z,83.51
2018-12-13T10:32:23.820Z,83.32
2018-12-13T10:33:22.369Z,83.13
2018-12-13T10:34:20.994Z,82.94
2018-12-13T10:35:19.574Z,82.75
2018-12-13T10:36:18.152Z,82.66
2018-12-13T10:37:17.070Z,82.94
2018-12-13T10:38:15.614Z,82.85
2018-12-13T10:39:14.219Z,82.85
2018-12-13T10:40:12.900Z,82.94
2018-12-13T10:41:11.552Z,82.37
2018-12-13T10:42:10.181Z,82.09
2018-12-13T10:43:08.713Z,82.28
2018-12-13T10:44:07.284Z,82.56
2018-12-13T10:45:05.807Z,82.09
2018-12-13T10:47:45.767Z,82.75
2018-12-13T10:48:44.965Z,82.09
2018-12-13T10:49:43.552Z,81.81
2018-12-13T10:50:42.088Z,81.81
2018-12-13T10:51:40.654Z,82.28
2018-12-13T10:52:39.221Z,82.66
2018-12-13T10:53:37.803Z,82.66
2018-12-13T10:54:36.424Z,82.51
2018-12-13T10:55:35.080Z,82.32
2018-12-13T10:56:33.631Z,81.75
2018-12-13T10:57:32.352Z,81.47
2018-12-13T10:58:31.139Z,81.94
2018-12-13T10:59:29.738Z,81.85
2018-12-13T11:00:28.279Z,81.56
2018-12-13T11:01:26.857Z,82.42
2018-12-13T11:02:25.405Z,82.04
2018-12-13T11:03:23.989Z,82.42
2018-12-13T11:04:22.933Z,81.66
2018-12-13T11:05:21.498Z,82.09
2018-12-13T11:06:20.082Z,81.9
2018-12-13T11:07:18.733Z,82.37
2018-12-13T11:08:17.406Z,82.18
2018-12-13T11:09:15.960Z,82.09
2018-12-13T11:10:14.497Z,82.47
2018-12-13T11:11:13.000Z,81.71
2018-12-13T11:12:11.556Z,81.62
2018-12-13T11:13:10.121Z,81.9
2018-12-13T11:14:08.660Z,82.09
2018-12-13T11:15:07.185Z,82.47
2018-12-13T11:16:05.724Z,82.75
2018-12-13T11:18:46.116Z,82.23
2018-12-13T11:19:44.843Z,82.23
2018-12-13T11:20:43.535Z,82.09
2018-12-13T11:21:42.028Z,81.81
2018-12-13T11:22:40.560Z,82.09
2018-12-13T11:23:39.160Z,82.13
2018-12-13T11:24:37.668Z,81.94
2018-12-13T11:25:36.200Z,82.09
2018-12-13T11:26:34.752Z,81.81
2018-12-13T11:27:33.289Z,82.47
2018-12-13T11:28:31.827Z,82.13
2018-12-13T11:29:30.670Z,81.71
2018-12-13T11:30:29.364Z,82.13
2018-12-13T11:31:27.943Z,81.75
2018-12-13T11:32:26.678Z,82.13
2018-12-13T11:33:25.303Z,81.66
2018-12-13T11:34:23.867Z,80.8
2018-12-13T11:35:22.442Z,81.56
2018-12-13T11:36:21.024Z,81.56
2018-12-13T11:37:19.582Z,80.99
2018-12-13T11:38:18.311Z,80.8
2018-12-13T11:39:17.188Z,81.09
2018-12-13T11:40:15.741Z,80.71
2018-12-13T11:41:14.281Z,80.62
2018-12-13T11:42:12.952Z,80.8
2018-12-13T11:43:11.496Z,80.8
2018-12-13T11:44:10.102Z,80.8
2018-12-13T11:45:08.679Z,80.52
2018-12-13T11:46:07.335Z,80.18
2018-12-13T11:47:05.891Z,80.33
2018-12-13T11:48:04.518Z,80.33
2018-12-13T11:49:03.176Z,80.71
2018-12-13T11:50:01.692Z,80.62
2018-12-13T11:51:00.304Z,80.9
2018-12-13T11:51:58.936Z,80.8
2018-12-13T11:52:57.657Z,80.62
2018-12-13T11:53:56.174Z,79.76
2018-12-13T11:54:54.701Z,80.24
2018-12-13T11:55:53.227Z,80.04
2018-12-13T11:56:51.811Z,80.37
2018-12-13T11:57:50.338Z,80.43
2018-12-13T11:58:49.206Z,80.14
2018-12-13T11:59:47.725Z,80.52
2018-12-13T12:00:46.327Z,80.8
2018-12-13T12:01:45.108Z,80.24
2018-12-13T12:02:43.588Z,80.43
2018-12-13T12:03:42.122Z,80.14
2018-12-13T12:04:40.733Z,80.04
2018-12-13T12:05:39.319Z,80.14
2018-12-13T12:06:37.886Z,80.43
2018-12-13T12:07:36.436Z,80.99
2018-12-13T12:08:35.219Z,80.99
2018-12-13T12:09:33.783Z,81.09
2018-12-13T12:10:32.405Z,80.71
2018-12-13T12:11:31.149Z,80.99
2018-12-13T12:12:29.696Z,81.18
2018-12-13T12:13:28.261Z,81.09
2018-12-13T12:14:26.921Z,80.9
2018-12-13T12:15:25.463Z,80.62
2018-12-13T12:16:24.011Z,81.09
2018-12-13T12:17:22.548Z,81.09
2018-12-13T12:18:21.080Z,80.99
2018-12-13T12:19:19.668Z,80.9
2018-12-13T12:20:18.203Z,80.62
2018-12-13T12:21:17.068Z,80.8
2018-12-13T12:22:15.636Z,80.9
2018-12-13T12:23:14.218Z,80.9
2018-12-13T12:24:12.922Z,80.99
2018-12-13T12:25:11.591Z,80.62
2018-12-13T12:26:10.165Z,80.8
2018-12-13T12:27:08.697Z,80.62
2018-12-13T12:28:07.264Z,80.62
2018-12-13T12:29:05.789Z,80.52
2018-12-13T12:30:04.692Z,80.99
2018-12-13T12:31:03.403Z,81.47
2018-12-13T12:32:01.961Z,81.18
2018-12-13T12:33:00.657Z,80.71
2018-12-13T12:33:59.266Z,80.9
2018-12-13T12:34:57.816Z,80.62
2018-12-13T12:35:56.331Z,80.33
2018-12-13T12:36:54.889Z,80.52
2018-12-13T12:37:53.465Z,80.52
2018-12-13T12:38:51.993Z,80.52
2018-12-13T12:39:50.822Z,80.52
2018-12-13T12:40:49.402Z,80.71
2018-12-13T12:41:47.979Z,80.52
2018-12-13T12:42:46.669Z,80.99
2018-12-13T12:43:45.398Z,80.71
2018-12-13T12:44:43.951Z,80.99
2018-12-13T12:45:42.484Z,80.52
2018-12-13T12:46:41.058Z,80.8
2018-12-13T12:47:39.588Z,80.62